sensor_id;sensor_type;location;lat;lon;timestamp;pressure;altitude;pressure_sealevel;temperature;humidity
72038;BME280;59900;50.788;12.904;2023-02-08T00:00:22;99818.28;;;-5.81;84.13
72038;BME280;59900;50.788;12.904;2023-02-08T00:02:48;99817.63;;;-5.86;84.12
72038;BME280;59900;50.788;12.904;2023-02-08T00:05:14;99810.06;;;-5.90;84.28
72038;BME280;59900;50.788;12.904;2023-02-08T00:07:39;99817.75;;;-5.92;84.00
72038;BME280;59900;50.788;12.904;2023-02-08T00:10:05;99817.75;;;-5.92;84.74
72038;BME280;59900;50.788;12.904;2023-02-08T00:12:32;99817.75;;;-5.92;84.66
72038;BME280;59900;50.788;12.904;2023-02-08T00:14:57;99824.75;;;-5.98;84.49
72038;BME280;59900;50.788;12.904;2023-02-08T00:17:23;99824.16;;;-6.08;83.99
72038;BME280;59900;50.788;12.904;2023-02-08T00:19:48;99816.56;;;-6.11;84.00
72038;BME280;59900;50.788;12.904;2023-02-08T00:22:13;99822.53;;;-6.12;84.19
72038;BME280;59900;50.788;12.904;2023-02-08T00:24:38;99826.88;;;-6.15;84.32
72038;BME280;59900;50.788;12.904;2023-02-08T00:27:04;99826.00;;;-6.14;84.55
72038;BME280;59900;50.788;12.904;2023-02-08T00:29:29;99818.34;;;-6.16;84.54
72038;BME280;59900;50.788;12.904;2023-02-08T00:31:54;99819.31;;;-6.20;84.82
72038;BME280;59900;50.788;12.904;2023-02-08T00:34:20;99823.63;;;-6.22;84.33
72038;BME280;59900;50.788;12.904;2023-02-08T00:36:45;99821.13;;;-6.25;84.71
72038;BME280;59900;50.788;12.904;2023-02-08T00:39:10;99824.59;;;-6.26;84.58
72038;BME280;59900;50.788;12.904;2023-02-08T00:41:35;99833.09;;;-6.26;84.50
72038;BME280;59900;50.788;12.904;2023-02-08T00:44:01;99830.69;;;-6.32;85.07
72038;BME280;59900;50.788;12.904;2023-02-08T00:46:26;99832.41;;;-6.32;85.16
72038;BME280;59900;50.788;12.904;2023-02-08T00:48:51;99826.44;;;-6.33;86.08
72038;BME280;59900;50.788;12.904;2023-02-08T00:51:16;99828.06;;;-6.29;85.86
72038;BME280;59900;50.788;12.904;2023-02-08T00:53:43;99813.63;;;-6.31;84.90
72038;BME280;59900;50.788;12.904;2023-02-08T00:56:10;99820.53;;;-6.35;84.65
72038;BME280;59900;50.788;12.904;2023-02-08T00:58:36;99817.06;;;-6.34;85.05
72038;BME280;59900;50.788;12.904;2023-02-08T01:01:02;99821.19;;;-6.28;85.18
72038;BME280;59900;50.788;12.904;2023-02-08T01:03:28;99807.53;;;-6.27;85.67
72038;BME280;59900;50.788;12.904;2023-02-08T01:05:59;99807.53;;;-6.27;85.28
72038;BME280;59900;50.788;12.904;2023-02-08T01:08:25;99812.63;;;-6.26;85.08
72038;BME280;59900;50.788;12.904;2023-02-08T01:10:50;99811.88;;;-6.29;84.90
72038;BME280;59900;50.788;12.904;2023-02-08T01:13:15;99809.16;;;-6.23;85.44
72038;BME280;59900;50.788;12.904;2023-02-08T01:15:41;99804.00;;;-6.21;84.88
72038;BME280;59900;50.788;12.904;2023-02-08T01:18:07;99807.47;;;-6.24;84.32
72038;BME280;59900;50.788;12.904;2023-02-08T01:20:35;99808.38;;;-6.27;84.17
72038;BME280;59900;50.788;12.904;2023-02-08T01:23:00;99806.63;;;-6.25;84.53
72038;BME280;59900;50.788;12.904;2023-02-08T01:25:26;99797.22;;;-6.22;84.40
72038;BME280;59900;50.788;12.904;2023-02-08T01:27:51;99797.22;;;-6.22;84.81
72038;BME280;59900;50.788;12.904;2023-02-08T01:30:17;99792.09;;;-6.22;84.37
72038;BME280;59900;50.788;12.904;2023-02-08T01:32:42;99792.84;;;-6.19;84.21
72038;BME280;59900;50.788;12.904;2023-02-08T01:35:07;99789.34;;;-6.15;84.59
72038;BME280;59900;50.788;12.904;2023-02-08T01:37:32;99785.06;;;-6.14;84.41
72038;BME280;59900;50.788;12.904;2023-02-08T01:39:57;99791.03;;;-6.14;84.00
72038;BME280;59900;50.788;12.904;2023-02-08T01:42:23;99788.56;;;-6.17;84.21
72038;BME280;59900;50.788;12.904;2023-02-08T01:47:48;99785.09;;;-6.16;83.55
72038;BME280;59900;50.788;12.904;2023-02-08T01:50:17;99774.06;;;-6.18;83.81
72038;BME280;59900;50.788;12.904;2023-02-08T01:52:44;99783.44;;;-6.17;83.37
72038;BME280;59900;50.788;12.904;2023-02-08T01:55:15;99775.78;;;-6.18;83.04
72038;BME280;59900;50.788;12.904;2023-02-08T01:57:42;99775.00;;;-6.22;83.41
72038;BME280;59900;50.788;12.904;2023-02-08T02:00:11;99776.84;;;-6.27;82.80
72038;BME280;59900;50.788;12.904;2023-02-08T02:02:39;99772.66;;;-6.30;83.72
72038;BME280;59900;50.788;12.904;2023-02-08T02:05:06;99760.84;;;-6.35;83.93
72038;BME280;59900;50.788;12.904;2023-02-08T02:07:31;99767.66;;;-6.34;83.87
72038;BME280;59900;50.788;12.904;2023-02-08T02:10:04;99767.59;;;-6.33;83.95
72038;BME280;59900;50.788;12.904;2023-02-08T02:12:32;99759.94;;;-6.33;84.11
72038;BME280;59900;50.788;12.904;2023-02-08T02:14:58;99765.09;;;-6.34;83.96
72038;BME280;59900;50.788;12.904;2023-02-08T02:17:23;99770.22;;;-6.34;83.89
72038;BME280;59900;50.788;12.904;2023-02-08T02:20:15;99777.88;;;-6.34;83.85
72038;BME280;59900;50.788;12.904;2023-02-08T02:29:20;99770.38;;;-6.42;83.50
72038;BME280;59900;50.788;12.904;2023-02-08T02:34:57;99763.63;;;-6.44;84.15
72038;BME280;59900;50.788;12.904;2023-02-08T02:41:06;99767.13;;;-6.48;84.17
72038;BME280;59900;50.788;12.904;2023-02-08T02:43:17;99767.97;;;-6.48;84.32
72038;BME280;59900;50.788;12.904;2023-02-08T02:46:21;99767.19;;;-6.51;83.89
72038;BME280;59900;50.788;12.904;2023-02-08T02:51:41;99768.09;;;-6.54;84.04
72038;BME280;59900;50.788;12.904;2023-02-08T02:54:18;99765.53;;;-6.54;83.89
72038;BME280;59900;50.788;12.904;2023-02-08T02:56:48;99770.72;;;-6.55;83.75
72038;BME280;59900;50.788;12.904;2023-02-08T02:59:16;99763.03;;;-6.55;84.07
72038;BME280;59900;50.788;12.904;2023-02-08T03:01:43;99764.78;;;-6.57;83.50
72038;BME280;59900;50.788;12.904;2023-02-08T03:04:18;99769.03;;;-6.56;82.84
72038;BME280;59900;50.788;12.904;2023-02-08T03:09:35;99763.03;;;-6.55;82.60
72038;BME280;59900;50.788;12.904;2023-02-08T03:17:49;99758.16;;;-6.66;82.61
72038;BME280;59900;50.788;12.904;2023-02-08T03:20:24;99749.63;;;-6.65;83.02
72038;BME280;59900;50.788;12.904;2023-02-08T03:25:49;99753.94;;;-6.67;82.42
72038;BME280;59900;50.788;12.904;2023-02-08T03:28:23;99748.06;;;-6.72;82.71
72038;BME280;59900;50.788;12.904;2023-02-08T03:31:11;99757.56;;;-6.75;82.85
72038;BME280;59900;50.788;12.904;2023-02-08T03:33:47;99760.06;;;-6.74;83.20
72038;BME280;59900;50.788;12.904;2023-02-08T03:36:20;99765.16;;;-6.74;82.83
72038;BME280;59900;50.788;12.904;2023-02-08T03:38:50;99765.31;;;-6.80;83.03
72038;BME280;59900;50.788;12.904;2023-02-08T03:41:22;99769.63;;;-6.82;83.06
72038;BME280;59900;50.788;12.904;2023-02-08T03:43:55;99764.59;;;-6.87;82.64
72038;BME280;59900;50.788;12.904;2023-02-08T03:46:26;99763.88;;;-6.92;82.35
72038;BME280;59900;50.788;12.904;2023-02-08T03:48:59;99766.41;;;-6.90;82.90
72038;BME280;59900;50.788;12.904;2023-02-08T03:51:28;99759.53;;;-6.88;83.09
72038;BME280;59900;50.788;12.904;2023-02-08T03:53:56;99756.91;;;-6.85;83.36
72038;BME280;59900;50.788;12.904;2023-02-08T03:59:06;99754.41;;;-6.88;83.28
72038;BME280;59900;50.788;12.904;2023-02-08T04:01:50;99749.31;;;-6.88;83.36
72038;BME280;59900;50.788;12.904;2023-02-08T04:04:19;99748.41;;;-6.86;83.46
72038;BME280;59900;50.788;12.904;2023-02-08T04:06:45;99753.50;;;-6.86;83.48
72038;BME280;59900;50.788;12.904;2023-02-08T04:09:11;99752.66;;;-6.86;83.58
72038;BME280;59900;50.788;12.904;2023-02-08T04:11:36;99761.28;;;-6.90;83.43
72038;BME280;59900;50.788;12.904;2023-02-08T04:14:01;99765.56;;;-6.91;83.86
72038;BME280;59900;50.788;12.904;2023-02-08T04:16:26;99768.13;;;-6.91;83.69
72038;BME280;59900;50.788;12.904;2023-02-08T04:18:52;99763.13;;;-6.97;83.81
72038;BME280;59900;50.788;12.904;2023-02-08T04:21:17;99763.09;;;-6.95;83.61
72038;BME280;59900;50.788;12.904;2023-02-08T04:23:42;99764.81;;;-6.96;83.40
72038;BME280;59900;50.788;12.904;2023-02-08T04:26:07;99771.59;;;-6.95;84.03
72038;BME280;59900;50.788;12.904;2023-02-08T04:28:33;99770.75;;;-6.95;83.64
72038;BME280;59900;50.788;12.904;2023-02-08T04:30:59;99760.63;;;-7.00;83.80
72038;BME280;59900;50.788;12.904;2023-02-08T04:33:24;99769.34;;;-7.08;83.14
72038;BME280;59900;50.788;12.904;2023-02-08T04:35:49;99768.50;;;-7.09;83.30
72038;BME280;59900;50.788;12.904;2023-02-08T04:38:15;99769.38;;;-7.10;83.39
72038;BME280;59900;50.788;12.904;2023-02-08T04:40:40;99767.75;;;-7.14;83.97
72038;BME280;59900;50.788;12.904;2023-02-08T04:43:05;99770.38;;;-7.17;84.35
72038;BME280;59900;50.788;12.904;2023-02-08T04:45:30;99777.13;;;-7.14;84.91
72038;BME280;59900;50.788;12.904;2023-02-08T04:47:59;99776.22;;;-7.12;84.77
72038;BME280;59900;50.788;12.904;2023-02-08T04:50:24;99773.66;;;-7.10;84.59
72038;BME280;59900;50.788;12.904;2023-02-08T04:52:50;99771.97;;;-7.11;84.38
72038;BME280;59900;50.788;12.904;2023-02-08T04:55:16;99772.75;;;-7.09;84.59
72038;BME280;59900;50.788;12.904;2023-02-08T04:57:41;99767.63;;;-7.08;85.05
72038;BME280;59900;50.788;12.904;2023-02-08T05:00:06;99768.44;;;-7.06;84.67
72038;BME280;59900;50.788;12.904;2023-02-08T05:02:32;99765.09;;;-7.08;85.07
72038;BME280;59900;50.788;12.904;2023-02-08T05:04:57;99764.19;;;-7.07;85.08
72038;BME280;59900;50.788;12.904;2023-02-08T05:07:22;99759.94;;;-7.06;84.63
72038;BME280;59900;50.788;12.904;2023-02-08T05:09:48;99756.59;;;-7.10;84.42
72038;BME280;59900;50.788;12.904;2023-02-08T05:12:13;99763.72;;;-7.24;83.31
72038;BME280;59900;50.788;12.904;2023-02-08T05:14:38;99754.59;;;-7.35;81.70
72038;BME280;59900;50.788;12.904;2023-02-08T05:17:03;99760.72;;;-7.44;81.40
72038;BME280;59900;50.788;12.904;2023-02-08T05:19:29;99761.88;;;-7.59;80.75
72038;BME280;59900;50.788;12.904;2023-02-08T05:21:54;99761.06;;;-7.61;81.48
72038;BME280;59900;50.788;12.904;2023-02-08T05:24:19;99759.41;;;-7.63;81.21
72038;BME280;59900;50.788;12.904;2023-02-08T05:26:44;99767.25;;;-7.74;81.55
72038;BME280;59900;50.788;12.904;2023-02-08T05:29:10;99772.47;;;-7.78;82.44
72038;BME280;59900;50.788;12.904;2023-02-08T05:31:35;99762.25;;;-7.80;82.87
72038;BME280;59900;50.788;12.904;2023-02-08T05:34:00;99770.66;;;-7.73;83.12
72038;BME280;59900;50.788;12.904;2023-02-08T05:36:26;99765.53;;;-7.73;82.27
72038;BME280;59900;50.788;12.904;2023-02-08T05:38:51;99762.94;;;-7.72;82.47
72038;BME280;59900;50.788;12.904;2023-02-08T05:41:17;99765.50;;;-7.70;82.38
72038;BME280;59900;50.788;12.904;2023-02-08T05:43:42;99767.19;;;-7.71;82.33
72038;BME280;59900;50.788;12.904;2023-02-08T05:46:08;99764.63;;;-7.69;82.95
72038;BME280;59900;50.788;12.904;2023-02-08T05:48:33;99767.94;;;-7.64;82.87
72038;BME280;59900;50.788;12.904;2023-02-08T05:50:59;99767.06;;;-7.63;82.70
72038;BME280;59900;50.788;12.904;2023-02-08T05:53:24;99767.06;;;-7.63;83.19
72038;BME280;59900;50.788;12.904;2023-02-08T05:55:50;99761.97;;;-7.65;82.65
72038;BME280;59900;50.788;12.904;2023-02-08T05:58:16;99775.59;;;-7.64;83.23
72038;BME280;59900;50.788;12.904;2023-02-08T06:00:42;99761.13;;;-7.65;83.11
72038;BME280;59900;50.788;12.904;2023-02-08T06:03:07;99771.31;;;-7.64;83.55
72038;BME280;59900;50.788;12.904;2023-02-08T06:05:33;99772.13;;;-7.62;83.41
72038;BME280;59900;50.788;12.904;2023-02-08T06:07:58;99772.03;;;-7.57;83.70
72038;BME280;59900;50.788;12.904;2023-02-08T06:10:24;99781.38;;;-7.56;83.79
72038;BME280;59900;50.788;12.904;2023-02-08T06:12:49;99778.88;;;-7.58;83.55
72038;BME280;59900;50.788;12.904;2023-02-08T06:15:14;99777.97;;;-7.55;83.59
72038;BME280;59900;50.788;12.904;2023-02-08T06:17:39;99783.88;;;-7.52;84.02
72038;BME280;59900;50.788;12.904;2023-02-08T06:20:05;99773.53;;;-7.47;84.43
72038;BME280;59900;50.788;12.904;2023-02-08T06:22:33;99784.50;;;-7.42;84.46
72038;BME280;59900;50.788;12.904;2023-02-08T06:24:58;99787.03;;;-7.41;84.36
72038;BME280;59900;50.788;12.904;2023-02-08T06:27:23;99779.28;;;-7.36;85.02
72038;BME280;59900;50.788;12.904;2023-02-08T06:29:48;99787.78;;;-7.34;84.84
72038;BME280;59900;50.788;12.904;2023-02-08T06:32:14;99786.03;;;-7.32;85.72
72038;BME280;59900;50.788;12.904;2023-02-08T06:34:39;99789.25;;;-7.22;86.67
72038;BME280;59900;50.788;12.904;2023-02-08T06:37:04;99776.97;;;-7.07;86.98
72038;BME280;59900;50.788;12.904;2023-02-08T06:39:30;99786.06;;;-6.94;86.59
72038;BME280;59900;50.788;12.904;2023-02-08T06:41:55;99797.03;;;-6.89;85.99
72038;BME280;59900;50.788;12.904;2023-02-08T06:44:20;99799.38;;;-6.79;86.30
72038;BME280;59900;50.788;12.904;2023-02-08T06:46:45;99792.44;;;-6.73;85.56
72038;BME280;59900;50.788;12.904;2023-02-08T06:49:11;99799.31;;;-6.76;84.66
72038;BME280;59900;50.788;12.904;2023-02-08T06:51:36;99802.81;;;-6.81;84.58
72038;BME280;59900;50.788;12.904;2023-02-08T06:54:01;99800.16;;;-6.76;85.23
72038;BME280;59900;50.788;12.904;2023-02-08T06:56:27;99805.03;;;-6.65;85.36
72038;BME280;59900;50.788;12.904;2023-02-08T06:58:52;99805.66;;;-6.56;85.47
72038;BME280;59900;50.788;12.904;2023-02-08T07:01:17;99805.41;;;-6.45;85.38
72038;BME280;59900;50.788;12.904;2023-02-08T07:03:42;99804.41;;;-6.38;84.92
72038;BME280;59900;50.788;12.904;2023-02-08T07:06:13;99808.50;;;-6.31;85.29
72038;BME280;59900;50.788;12.904;2023-02-08T07:08:42;99806.59;;;-6.23;84.81
72038;BME280;59900;50.788;12.904;2023-02-08T07:11:13;99812.38;;;-6.15;84.47
72038;BME280;59900;50.788;12.904;2023-02-08T07:13:38;99813.91;;;-6.08;84.83
72038;BME280;59900;50.788;12.904;2023-02-08T07:16:05;99811.13;;;-5.99;84.16
72038;BME280;59900;50.788;12.904;2023-02-08T07:18:31;99812.63;;;-5.90;83.93
72038;BME280;59900;50.788;12.904;2023-02-08T07:20:56;99811.59;;;-5.85;84.05
72038;BME280;59900;50.788;12.904;2023-02-08T07:23:21;99813.19;;;-5.81;84.26
72038;BME280;59900;50.788;12.904;2023-02-08T07:26:07;99806.97;;;-5.72;83.70
72038;BME280;59900;50.788;12.904;2023-02-08T07:28:33;99804.31;;;-5.68;83.43
72038;BME280;59900;50.788;12.904;2023-02-08T07:31:03;99806.66;;;-5.60;83.45
72038;BME280;59900;50.788;12.904;2023-02-08T07:33:29;99803.09;;;-5.54;83.67
72038;BME280;59900;50.788;12.904;2023-02-08T07:35:54;99797.03;;;-5.50;83.51
72038;BME280;59900;50.788;12.904;2023-02-08T07:38:19;99794.28;;;-5.44;83.21
72038;BME280;59900;50.788;12.904;2023-02-08T07:40:44;99797.63;;;-5.41;83.34
72038;BME280;59900;50.788;12.904;2023-02-08T07:43:10;99791.47;;;-5.35;83.01
72038;BME280;59900;50.788;12.904;2023-02-08T07:45:39;99795.72;;;-5.34;82.65
72038;BME280;59900;50.788;12.904;2023-02-08T07:48:04;99796.44;;;-5.29;82.28
72038;BME280;59900;50.788;12.904;2023-02-08T07:50:30;99793.78;;;-5.26;82.03
72038;BME280;59900;50.788;12.904;2023-02-08T07:52:55;99797.13;;;-5.23;81.78
72038;BME280;59900;50.788;12.904;2023-02-08T07:55:20;99805.50;;;-5.18;81.86
72038;BME280;59900;50.788;12.904;2023-02-08T07:57:47;99796.75;;;-5.11;81.86
72038;BME280;59900;50.788;12.904;2023-02-08T08:00:15;99786.38;;;-5.06;81.07
72038;BME280;59900;50.788;12.904;2023-02-08T08:02:41;99790.47;;;-5.00;80.81
72038;BME280;59900;50.788;12.904;2023-02-08T08:05:07;99799.69;;;-4.93;81.25
72038;BME280;59900;50.788;12.904;2023-02-08T08:07:32;99795.28;;;-4.90;80.38
72038;BME280;59900;50.788;12.904;2023-02-08T08:09:58;99797.72;;;-4.85;80.08
72038;BME280;59900;50.788;12.904;2023-02-08T08:12:23;99791.56;;;-4.80;80.30
72038;BME280;59900;50.788;12.904;2023-02-08T08:14:49;99800.78;;;-4.73;80.36
72038;BME280;59900;50.788;12.904;2023-02-08T08:17:14;99797.13;;;-4.66;80.47
72038;BME280;59900;50.788;12.904;2023-02-08T08:19:39;99792.75;;;-4.62;79.28
72038;BME280;59900;50.788;12.904;2023-02-08T08:22:05;99803.59;;;-4.54;79.16
72038;BME280;59900;50.788;12.904;2023-02-08T08:24:30;99797.44;;;-4.48;79.31
72038;BME280;59900;50.788;12.904;2023-02-08T08:26:59;99803.22;;;-4.42;79.27
72038;BME280;59900;50.788;12.904;2023-02-08T08:29:24;99801.25;;;-4.34;79.54
72038;BME280;59900;50.788;12.904;2023-02-08T08:31:50;99797.63;;;-4.27;78.87
72038;BME280;59900;50.788;12.904;2023-02-08T08:34:15;99802.59;;;-4.22;78.42
72038;BME280;59900;50.788;12.904;2023-02-08T08:36:41;99798.19;;;-4.17;78.18
72038;BME280;59900;50.788;12.904;2023-02-08T08:39:06;99798.75;;;-4.09;78.47
72038;BME280;59900;50.788;12.904;2023-02-08T08:41:31;99794.31;;;-4.04;78.67
72038;BME280;59900;50.788;12.904;2023-02-08T08:43:56;99806.94;;;-3.98;77.90
72038;BME280;59900;50.788;12.904;2023-02-08T08:46:22;99805.88;;;-3.91;77.58
72038;BME280;59900;50.788;12.904;2023-02-08T08:48:50;99800.53;;;-3.85;78.16
72038;BME280;59900;50.788;12.904;2023-02-08T08:51:16;99801.13;;;-3.78;78.18
72038;BME280;59900;50.788;12.904;2023-02-08T08:53:41;99807.75;;;-3.71;77.43
72038;BME280;59900;50.788;12.904;2023-02-08T08:56:06;99816.88;;;-3.63;77.02
72038;BME280;59900;50.788;12.904;2023-02-08T08:58:32;99795.25;;;-3.56;76.38
72038;BME280;59900;50.788;12.904;2023-02-08T09:00:57;99800.97;;;-3.49;76.46
72038;BME280;59900;50.788;12.904;2023-02-08T09:03:25;99798.94;;;-3.40;75.61
72038;BME280;59900;50.788;12.904;2023-02-08T09:05:50;99808.91;;;-3.30;75.24
72038;BME280;59900;50.788;12.904;2023-02-08T09:08:16;99804.38;;;-3.24;74.24
72038;BME280;59900;50.788;12.904;2023-02-08T09:10:41;99806.66;;;-3.16;74.35
72038;BME280;59900;50.788;12.904;2023-02-08T09:13:07;99812.44;;;-3.10;73.75
72038;BME280;59900;50.788;12.904;2023-02-08T09:15:32;99809.56;;;-3.02;73.77
72038;BME280;59900;50.788;12.904;2023-02-08T09:17:58;99814.50;;;-2.96;73.75
72038;BME280;59900;50.788;12.904;2023-02-08T09:20:23;99810.03;;;-2.91;73.44
72038;BME280;59900;50.788;12.904;2023-02-08T09:22:48;99810.69;;;-2.86;73.32
72038;BME280;59900;50.788;12.904;2023-02-08T09:25:14;99817.31;;;-2.79;72.85
72038;BME280;59900;50.788;12.904;2023-02-08T09:27:40;99810.16;;;-2.72;73.00
72038;BME280;59900;50.788;12.904;2023-02-08T09:30:11;99803.91;;;-2.65;73.31
72038;BME280;59900;50.788;12.904;2023-02-08T09:32:37;99801.94;;;-2.59;71.88
72038;BME280;59900;50.788;12.904;2023-02-08T09:35:04;99809.56;;;-2.56;71.26
72038;BME280;59900;50.788;12.904;2023-02-08T09:37:32;99811.94;;;-2.51;71.52
72038;BME280;59900;50.788;12.904;2023-02-08T09:39:57;99813.50;;;-2.47;71.75
72038;BME280;59900;50.788;12.904;2023-02-08T09:42:43;99811.47;;;-2.39;71.90
72038;BME280;59900;50.788;12.904;2023-02-08T09:45:25;99815.53;;;-2.34;71.50
72038;BME280;59900;50.788;12.904;2023-02-08T09:50:48;99826.31;;;-2.24;70.57
72038;BME280;59900;50.788;12.904;2023-02-08T09:53:24;99826.06;;;-2.18;70.61
72038;BME280;59900;50.788;12.904;2023-02-08T09:55:54;99825.88;;;-2.13;70.80
72038;BME280;59900;50.788;12.904;2023-02-08T09:58:38;99829.06;;;-2.07;70.78
72038;BME280;59900;50.788;12.904;2023-02-08T10:01:06;99822.81;;;-2.01;70.19
72038;BME280;59900;50.788;12.904;2023-02-08T10:03:41;99822.78;;;-2.00;69.42
72038;BME280;59900;50.788;12.904;2023-02-08T10:06:11;99832.00;;;-1.94;69.44
72038;BME280;59900;50.788;12.904;2023-02-08T10:08:39;99826.63;;;-1.90;69.79
72038;BME280;59900;50.788;12.904;2023-02-08T10:11:22;99829.84;;;-1.85;69.80
72038;BME280;59900;50.788;12.904;2023-02-08T10:22:21;99821.75;;;-1.55;69.10
72038;BME280;59900;50.788;12.904;2023-02-08T10:25:04;99819.72;;;-1.47;69.05
72038;BME280;59900;50.788;12.904;2023-02-08T10:30:27;99819.69;;;-1.27;68.85
72038;BME280;59900;50.788;12.904;2023-02-08T10:32:58;99828.00;;;-1.21;68.22
72038;BME280;59900;50.788;12.904;2023-02-08T10:35:28;99824.22;;;-1.14;68.75
72038;BME280;59900;50.788;12.904;2023-02-08T10:37:59;99825.78;;;-1.09;68.22
72038;BME280;59900;50.788;12.904;2023-02-08T10:40:34;99826.50;;;-1.06;68.33
72038;BME280;59900;50.788;12.904;2023-02-08T10:43:22;99826.16;;;-0.98;68.59
72038;BME280;59900;50.788;12.904;2023-02-08T10:49:02;99812.06;;;-0.91;68.79
72038;BME280;59900;50.788;12.904;2023-02-08T10:51:31;99818.47;;;-0.81;69.09
72038;BME280;59900;50.788;12.904;2023-02-08T10:53:56;99812.34;;;-0.79;68.52
72038;BME280;59900;50.788;12.904;2023-02-08T10:58:53;99797.56;;;-0.75;68.62
72038;BME280;59900;50.788;12.904;2023-02-08T11:01:19;99807.59;;;-0.69;68.12
72038;BME280;59900;50.788;12.904;2023-02-08T11:06:30;99786.75;;;-0.65;68.49
72038;BME280;59900;50.788;12.904;2023-02-08T11:08:55;99790.09;;;-0.63;68.57
72038;BME280;59900;50.788;12.904;2023-02-08T11:11:23;99790.22;;;-0.66;68.40
72038;BME280;59900;50.788;12.904;2023-02-08T11:13:51;99790.44;;;-0.70;68.27
72038;BME280;59900;50.788;12.904;2023-02-08T11:16:24;99782.97;;;-0.76;67.89
72038;BME280;59900;50.788;12.904;2023-02-08T11:18:56;99775.22;;;-0.76;68.14
72038;BME280;59900;50.788;12.904;2023-02-08T11:21:36;99768.53;;;-0.80;68.63
72038;BME280;59900;50.788;12.904;2023-02-08T11:24:22;99761.91;;;-0.86;68.62
72038;BME280;59900;50.788;12.904;2023-02-08T11:26:51;99756.19;;;-0.92;68.34
72038;BME280;59900;50.788;12.904;2023-02-08T11:29:22;99753.75;;;-0.95;69.09
72038;BME280;59900;50.788;12.904;2023-02-08T11:34:31;99751.53;;;-1.03;69.19
72038;BME280;59900;50.788;12.904;2023-02-08T11:36:58;99748.59;;;-0.95;69.00
72038;BME280;59900;50.788;12.904;2023-02-08T11:39:37;99750.00;;;-0.88;68.85
72038;BME280;59900;50.788;12.904;2023-02-08T11:42:04;99756.53;;;-0.81;68.37
72038;BME280;59900;50.788;12.904;2023-02-08T11:44:41;99762.31;;;-0.76;68.36
72038;BME280;59900;50.788;12.904;2023-02-08T11:47:09;99757.09;;;-0.75;67.35
72038;BME280;59900;50.788;12.904;2023-02-08T11:49:41;99745.88;;;-0.74;67.15
72038;BME280;59900;50.788;12.904;2023-02-08T11:52:21;99763.25;;;-0.77;66.80
72038;BME280;59900;50.788;12.904;2023-02-08T11:54:49;99754.19;;;-0.86;66.94
72038;BME280;59900;50.788;12.904;2023-02-08T11:57:16;99757.66;;;-0.87;66.97
72038;BME280;59900;50.788;12.904;2023-02-08T11:59:44;99747.06;;;-0.81;66.95
72038;BME280;59900;50.788;12.904;2023-02-08T12:02:27;99747.81;;;-0.79;66.53
72038;BME280;59900;50.788;12.904;2023-02-08T12:04:53;99761.28;;;-0.72;66.22
72038;BME280;59900;50.788;12.904;2023-02-08T12:10:20;99762.00;;;-0.51;66.27
72038;BME280;59900;50.788;12.904;2023-02-08T12:15:58;99759.47;;;-0.17;65.02
72038;BME280;59900;50.788;12.904;2023-02-08T12:18:43;99762.41;;;-0.06;64.58
72038;BME280;59900;50.788;12.904;2023-02-08T12:21:19;99756.69;;;0.05;63.87
72038;BME280;59900;50.788;12.904;2023-02-08T12:23:52;99761.16;;;0.18;64.46
72038;BME280;59900;50.788;12.904;2023-02-08T12:26:42;99754.53;;;0.30;64.08
72038;BME280;59900;50.788;12.904;2023-02-08T12:29:25;99751.63;;;0.36;63.40
72038;BME280;59900;50.788;12.904;2023-02-08T12:34:44;99742.22;;;0.35;62.20
72038;BME280;59900;50.788;12.904;2023-02-08T12:46:14;99740.09;;;0.91;61.41
72038;BME280;59900;50.788;12.904;2023-02-08T12:49:16;99737.47;;;1.08;60.94
72038;BME280;59900;50.788;12.904;2023-02-08T12:52:14;99729.59;;;1.26;60.83
72038;BME280;59900;50.788;12.904;2023-02-08T12:54:47;99725.44;;;1.23;59.36
72038;BME280;59900;50.788;12.904;2023-02-08T12:57:17;99729.34;;;1.30;60.11
72038;BME280;59900;50.788;12.904;2023-02-08T12:59:52;99732.44;;;1.37;60.03
72038;BME280;59900;50.788;12.904;2023-02-08T13:02:23;99725.47;;;1.53;59.90
72038;BME280;59900;50.788;12.904;2023-02-08T13:04:54;99731.00;;;1.77;59.43
72038;BME280;59900;50.788;12.904;2023-02-08T13:07:31;99724.91;;;1.78;58.42
72038;BME280;59900;50.788;12.904;2023-02-08T13:10:19;99720.72;;;1.61;57.81
72038;BME280;59900;50.788;12.904;2023-02-08T13:12:52;99711.91;;;1.63;58.59
72038;BME280;59900;50.788;12.904;2023-02-08T13:15:21;99703.28;;;1.79;58.29
72038;BME280;59900;50.788;12.904;2023-02-08T13:17:52;99713.22;;;1.70;57.83
72038;BME280;59900;50.788;12.904;2023-02-08T13:21:20;99706.81;;;1.62;58.14
72038;BME280;59900;50.788;12.904;2023-02-08T13:23:27;99716.44;;;1.60;58.46
72038;BME280;59900;50.788;12.904;2023-02-08T13:25:55;99701.44;;;1.65;58.69
72038;BME280;59900;50.788;12.904;2023-02-08T13:28:24;99698.63;;;1.54;58.15
72038;BME280;59900;50.788;12.904;2023-02-08T13:31:02;99704.97;;;1.64;58.04
72038;BME280;59900;50.788;12.904;2023-02-08T13:33:35;99694.91;;;1.74;58.98
72038;BME280;59900;50.788;12.904;2023-02-08T13:36:04;99692.13;;;2.06;58.07
72038;BME280;59900;50.788;12.904;2023-02-08T13:38:32;99697.06;;;2.11;57.49
72038;BME280;59900;50.788;12.904;2023-02-08T13:41:04;99688.44;;;2.24;56.68
72038;BME280;59900;50.788;12.904;2023-02-08T13:43:36;99692.97;;;2.21;56.52
72038;BME280;59900;50.788;12.904;2023-02-08T13:46:03;99690.31;;;2.37;56.57
72038;BME280;59900;50.788;12.904;2023-02-08T13:48:41;99688.25;;;2.42;56.27
72038;BME280;59900;50.788;12.904;2023-02-08T13:56:47;99691.22;;;2.36;55.05
72038;BME280;59900;50.788;12.904;2023-02-08T13:59:27;99694.75;;;2.49;55.23
72038;BME280;59900;50.788;12.904;2023-02-08T14:04:41;99697.66;;;2.58;55.00
72038;BME280;59900;50.788;12.904;2023-02-08T14:12:38;99697.25;;;2.78;53.90
72038;BME280;59900;50.788;12.904;2023-02-08T14:17:47;99694.09;;;2.88;53.68
72038;BME280;59900;50.788;12.904;2023-02-08T14:20:25;99695.28;;;2.82;53.89
72038;BME280;59900;50.788;12.904;2023-02-08T14:22:54;99692.34;;;2.74;53.98
72038;BME280;59900;50.788;12.904;2023-02-08T14:25:27;99694.09;;;2.73;54.21
72038;BME280;59900;50.788;12.904;2023-02-08T14:27:58;99686.78;;;2.66;53.22
72038;BME280;59900;50.788;12.904;2023-02-08T14:30:38;99688.09;;;2.73;53.80